createdAt,value
2022-09-13T00:01:36.237Z,97329.09
2022-09-13T00:04:39.017Z,97318.47
2022-09-13T00:07:41.730Z,97316.25
2022-09-13T00:10:45.592Z,97306.31
2022-09-13T00:13:49.708Z,97308.78
2022-09-13T00:16:52.418Z,97304.47
2022-09-13T00:19:55.176Z,97303.25
2022-09-13T00:22:57.922Z,97296.75
2022-09-13T00:26:06.020Z,97290.44
2022-09-13T00:29:10.130Z,97283.38
2022-09-13T00:32:13.242Z,97275.28
2022-09-13T00:35:16.134Z,97264.50
2022-09-13T00:38:18.960Z,97256.97
2022-09-13T00:41:22.765Z,97256.88
2022-09-13T00:44:55.216Z,97261.78
2022-09-13T00:48:01.882Z,97255.28
2022-09-13T00:51:07.507Z,97257.31
2022-09-13T00:54:11.099Z,97257.31
2022-09-13T00:57:15.850Z,97261.78
2022-09-13T01:00:20.812Z,97250.84
2022-09-13T01:03:26.847Z,97251.06
2022-09-13T01:06:33.211Z,97243.88
2022-09-13T01:09:40.258Z,97243.06
2022-09-13T01:12:50.100Z,97244.09
2022-09-13T01:15:54.341Z,97245.09
2022-09-13T01:18:57.074Z,97242.84
2022-09-13T01:22:48.503Z,97253.41
2022-09-13T01:26:27.419Z,97247.31
2022-09-13T01:29:56.958Z,97233.28
2022-09-13T01:33:17.902Z,97239.78
2022-09-13T01:36:37.059Z,97241.44
2022-09-13T01:39:58.139Z,97230.75
2022-09-13T01:43:20.744Z,97237.88
2022-09-13T01:46:28.154Z,97245.75
2022-09-13T01:49:39.140Z,97241.69
2022-09-13T01:52:50.488Z,97249.38
2022-09-13T01:56:00.242Z,97257.09
2022-09-13T01:59:08.707Z,97255.84
2022-09-13T02:02:17.729Z,97257.47
2022-09-13T02:05:28.845Z,97264.81
2022-09-13T02:08:39.653Z,97257.59
2022-09-13T02:11:46.409Z,97259.44
2022-09-13T02:14:55.485Z,97249.50
2022-09-13T02:18:05.942Z,97240.19
2022-09-13T02:21:14.063Z,97230.06
2022-09-13T02:24:20.448Z,97231.13
2022-09-13T02:27:28.117Z,97222.78
2022-09-13T02:30:34.918Z,97219.13
2022-09-13T02:33:41.986Z,97200.84
2022-09-13T02:36:49.716Z,97189.88
2022-09-13T02:39:58.324Z,97190.50
2022-09-13T02:43:05.748Z,97192.53
2022-09-13T02:46:21.330Z,97198.84
2022-09-13T02:49:54.019Z,97196.97
2022-09-13T02:53:05.375Z,97192.75
2022-09-13T02:56:19.851Z,97181.75
2022-09-13T02:59:24.834Z,97185.06
2022-09-13T03:02:32.843Z,97186.69
2022-09-13T03:05:35.672Z,97174.91
2022-09-13T03:08:40.300Z,97162.28
2022-09-13T03:11:57.559Z,97156.59
2022-09-13T03:15:12.587Z,97154.16
2022-09-13T03:18:29.710Z,97155.34
2022-09-13T03:21:50.227Z,97151.69
2022-09-13T03:25:04.436Z,97159.84
2022-09-13T03:28:21.501Z,97155.56
2022-09-13T03:31:33.910Z,97154.16
2022-09-13T03:34:45.116Z,97162.81
2022-09-13T03:37:55.561Z,97167.31
2022-09-13T03:41:06.490Z,97164.25
2022-09-13T03:44:14.157Z,97154.31
2022-09-13T03:47:19.549Z,97150.03
2022-09-13T03:50:24.156Z,97159.03
2022-09-13T03:53:30.239Z,97160.19
2022-09-13T03:56:34.412Z,97164.91
2022-09-13T03:59:38.852Z,97163.88
2022-09-13T04:02:42.130Z,97177.13
2022-09-13T04:05:44.890Z,97196.84
2022-09-13T04:08:47.895Z,97198.88
2022-09-13T04:11:52.096Z,97197.88
2022-09-13T04:14:54.952Z,97192.53
2022-09-13T04:17:57.693Z,97197.00
2022-09-13T04:21:02.379Z,97201.66
2022-09-13T04:24:05.471Z,97195.97
2022-09-13T04:27:09.969Z,97194.16
2022-09-13T04:30:13.781Z,97192.75
2022-09-13T04:33:17.359Z,97186.88
2022-09-13T04:36:21.319Z,97184.22
2022-09-13T04:39:24.353Z,97177.66
2022-09-13T04:42:28.461Z,97164.81
2022-09-13T04:45:31.413Z,97165.44
2022-09-13T04:48:34.286Z,97167.47
2022-09-13T04:51:37.171Z,97179.31
2022-09-13T04:54:39.959Z,97190.50
2022-09-13T04:57:44.122Z,97196.81
2022-09-13T05:00:47.843Z,97205.78
2022-09-13T05:03:52.678Z,97202.94
2022-09-13T05:06:55.491Z,97204.41
2022-09-13T05:09:58.292Z,97221.47
2022-09-13T05:13:02.365Z,97229.25
2022-09-13T05:16:07.246Z,97247.53
2022-09-13T05:19:11.298Z,97273.16
2022-09-13T05:22:14.064Z,97284.75
2022-09-13T05:25:17.070Z,97301.00
2022-09-13T05:28:21.280Z,97312.84
2022-09-13T05:31:26.545Z,97320.97
2022-09-13T05:34:29.676Z,97326.28
2022-09-13T05:37:32.499Z,97332.47
2022-09-13T05:40:35.385Z,97343.28
2022-09-13T05:43:39.528Z,97360.75
2022-09-13T05:46:43.226Z,97375.84
2022-09-13T05:50:08.947Z,97383.59
2022-09-13T05:53:09.150Z,97394.22
2022-09-13T05:56:16.801Z,97402.44
2022-09-13T05:59:21.096Z,97415.94
2022-09-13T06:02:23.891Z,97443.63
2022-09-13T06:05:29.929Z,97463.28
2022-09-13T06:08:35.665Z,97489.78
2022-09-13T06:11:38.737Z,97488.25
2022-09-13T06:14:43.079Z,97491.38
2022-09-13T06:17:47.079Z,97480.50
2022-09-13T06:20:50.277Z,97466.47
2022-09-13T06:23:54.730Z,97454.75
2022-09-13T06:26:57.518Z,97442.63
2022-09-13T06:30:01.776Z,97411.88
2022-09-13T06:33:04.853Z,97380.78
2022-09-13T06:36:09.663Z,97342.72
2022-09-13T06:39:12.479Z,97307.28
2022-09-13T06:42:15.232Z,97253.28
2022-09-13T06:45:19.357Z,97216.13
2022-09-13T06:48:22.194Z,97169.88
2022-09-13T06:51:26.406Z,97126.13
2022-09-13T06:54:29.302Z,97077.03
2022-09-13T06:57:32.170Z,97043.50
2022-09-13T07:00:36.319Z,97024.94
2022-09-13T07:03:40.308Z,97014.91
2022-09-13T07:06:44.968Z,97002.03
2022-09-13T07:09:47.740Z,96980.63
2022-09-13T07:12:50.820Z,96979.34
2022-09-13T07:15:55.055Z,96957.03
2022-09-13T07:18:59.852Z,96935.03
2022-09-13T07:22:02.644Z,96922.91
2022-09-13T07:25:06.325Z,96920.50
2022-09-13T07:28:09.145Z,96907.53
2022-09-13T07:31:14.928Z,96908.31
2022-09-13T07:34:20.483Z,96901.72
2022-09-13T07:37:23.258Z,96899.91
2022-09-13T07:40:26.163Z,96899.28
2022-09-13T07:43:29.693Z,96900.25
2022-09-13T07:47:01.970Z,96900.59
2022-09-13T07:50:04.943Z,96901.03
2022-09-13T07:53:07.668Z,96897.69
2022-09-13T07:56:12.520Z,96895.13
2022-09-13T07:59:17.011Z,96904.84
2022-09-13T08:02:21.200Z,96916.09
2022-09-13T08:05:24.054Z,96912.03
2022-09-13T08:08:27.136Z,96902.34
2022-09-13T08:11:32.052Z,96907.75
2022-09-13T08:14:35.030Z,96903.59
2022-09-13T08:17:39.167Z,96899.94
2022-09-13T08:20:42.125Z,96924.31
2022-09-13T08:23:45.232Z,96925.22
2022-09-13T08:26:49.078Z,96960.59
2022-09-13T08:29:51.943Z,97011.22
2022-09-13T08:32:56.201Z,97054.69
2022-09-13T08:35:59.159Z,97074.28
2022-09-13T08:39:02.306Z,97067.59
2022-09-13T08:42:16.126Z,97085.84
2022-09-13T08:45:19.318Z,97105.09
2022-09-13T08:48:29.628Z,97124.47
2022-09-13T08:51:36.117Z,97142.13
2022-09-13T08:54:38.985Z,97165.88
2022-09-13T08:57:46.979Z,97168.91
2022-09-13T09:00:55.803Z,97149.59
2022-09-13T09:04:05.742Z,97214.97
2022-09-13T09:07:14.210Z,97164.22
2022-09-13T09:10:20.093Z,97135.78
2022-09-13T09:13:30.311Z,97114.91
2022-09-13T09:16:38.252Z,97079.97
2022-09-13T09:19:47.881Z,97035.06
2022-09-13T09:22:52.456Z,96994.19
2022-09-13T09:25:59.132Z,96959.16
2022-09-13T09:29:06.567Z,96951.59
2022-09-13T09:32:20.722Z,96980.31
2022-09-13T09:35:35.382Z,96966.44
2022-09-13T09:38:43.939Z,96982.50
2022-09-13T09:41:47.010Z,96962.22
2022-09-13T09:44:53.279Z,96933.28
2022-09-13T09:47:57.807Z,96922.88
2022-09-13T09:51:06.287Z,96904.19
2022-09-13T09:54:39.147Z,96895.25
2022-09-13T09:57:53.207Z,96869.78
2022-09-13T10:00:58.987Z,96867.63
2022-09-13T10:04:09.463Z,96875.13
2022-09-13T10:07:25.407Z,96873.97
2022-09-13T10:10:36.762Z,96868.03
2022-09-13T10:13:39.733Z,96871.78
2022-09-13T10:16:42.968Z,96856.28
2022-09-13T10:19:58.783Z,96850.59
2022-09-13T10:23:19.331Z,96849.78
2022-09-13T10:26:24.356Z,96851.72
2022-09-13T10:29:28.910Z,96846.44
2022-09-13T10:32:32.169Z,96838.56
2022-09-13T10:35:34.982Z,96828.50
2022-09-13T10:38:45.981Z,96833.16
2022-09-13T10:41:55.887Z,96832.47
2022-09-13T10:45:01.781Z,96829.63
2022-09-13T10:48:11.969Z,96841.38
2022-09-13T10:51:29.742Z,96840.28
2022-09-13T10:54:33.851Z,96822.69
2022-09-13T10:57:38.423Z,96823.81
2022-09-13T11:01:07.839Z,96824.59
2022-09-13T11:04:46.192Z,96819.06
2022-09-13T11:08:12.872Z,96832.81
2022-09-13T11:11:25.219Z,96836.00
2022-09-13T11:14:46.097Z,96832.25
2022-09-13T11:18:21.095Z,96829.09
2022-09-13T11:21:36.540Z,96830.38
2022-09-13T11:24:57.817Z,96833.59
2022-09-13T11:28:10.179Z,96826.53
2022-09-13T11:31:25.893Z,96830.97
2022-09-13T11:34:43.339Z,96827.25
2022-09-13T11:37:55.386Z,96827.50
2022-09-13T11:41:05.311Z,96826.19
2022-09-13T11:44:36.738Z,96831.78
2022-09-13T11:47:58.604Z,96835.81
2022-09-13T11:51:09.961Z,96830.72
2022-09-13T11:54:25.179Z,96826.28
2022-09-13T11:57:33.862Z,96822.75
2022-09-13T12:00:42.934Z,96812.00
2022-09-13T12:03:52.339Z,96809.56
2022-09-13T12:06:59.844Z,96807.78
2022-09-13T12:10:09.335Z,96816.16
2022-09-13T12:13:17.745Z,96812.00
2022-09-13T12:16:27.638Z,96812.00
2022-09-13T12:19:41.962Z,96809.28
2022-09-13T12:22:46.659Z,96815.53
2022-09-13T12:25:56.073Z,96805.34
2022-09-13T12:29:04.391Z,96793.84
2022-09-13T12:32:11.352Z,96792.84
2022-09-13T12:35:23.028Z,96798.16
2022-09-13T12:38:50.686Z,96800.00
2022-09-13T12:42:18.684Z,96801.38
2022-09-13T12:45:54.787Z,96795.81
2022-09-13T12:49:27.420Z,96793.44
2022-09-13T12:52:37.781Z,96785.50
2022-09-13T12:56:09.525Z,96783.38
2022-09-13T12:59:26.648Z,96782.44
2022-09-13T13:02:35.275Z,96796.34
2022-09-13T13:05:42.599Z,96794.03
2022-09-13T13:08:52.706Z,96792.50
2022-09-13T13:11:55.930Z,96781.00
2022-09-13T13:14:59.815Z,96781.38
2022-09-13T13:18:23.570Z,96790.19
2022-09-13T13:21:31.635Z,96788.09
2022-09-13T13:24:47.357Z,96785.97
2022-09-13T13:27:55.092Z,96787.28
2022-09-13T13:30:59.108Z,96771.69
2022-09-13T13:34:04.062Z,96764.66
2022-09-13T13:37:29.550Z,96760.84
2022-09-13T13:40:32.328Z,96745.56
2022-09-13T13:43:36.444Z,96746.66
2022-09-13T13:46:40.166Z,96743.72
2022-09-13T13:49:46.645Z,96748.78
2022-09-13T13:52:56.762Z,96747.13
2022-09-13T13:56:16.668Z,96740.50
2022-09-13T13:59:26.174Z,96749.31
2022-09-13T14:02:37.806Z,96754.91
2022-09-13T14:05:47.868Z,96758.97
2022-09-13T14:09:09.596Z,96743.25
2022-09-13T14:12:22.575Z,96740.94
2022-09-13T14:15:36.879Z,96747.44
2022-09-13T14:19:06.601Z,96733.50
2022-09-13T14:22:16.242Z,96733.00
2022-09-13T14:25:26.637Z,96726.06
2022-09-13T14:28:29.824Z,96722.59
2022-09-13T14:31:32.721Z,96718.88
2022-09-13T14:34:38.679Z,96721.81
2022-09-13T14:37:41.662Z,96708.41
2022-09-13T14:40:49.309Z,96716.22
2022-09-13T14:43:52.101Z,96715.66
2022-09-13T14:47:02.771Z,96717.31
2022-09-13T14:50:09.295Z,96714.88
2022-09-13T14:53:17.610Z,96719.69
2022-09-13T14:56:31.224Z,96714.84
2022-09-13T14:59:37.711Z,96714.84
2022-09-13T15:02:41.650Z,96718.88
2022-09-13T15:05:53.146Z,96712.44
2022-09-13T15:08:59.569Z,96719.16
2022-09-13T15:12:03.941Z,96719.19
2022-09-13T15:15:41.225Z,96716.00
2022-09-13T15:18:43.987Z,96726.72
2022-09-13T15:21:46.820Z,96723.44
2022-09-13T15:24:52.220Z,96723.44
2022-09-13T15:27:57.837Z,96716.97
2022-09-13T15:31:03.672Z,96719.91
2022-09-13T15:34:13.787Z,96720.72
2022-09-13T15:37:16.903Z,96720.47
2022-09-13T15:40:22.092Z,96720.19
2022-09-13T15:43:26.430Z,96723.41
2022-09-13T15:46:29.951Z,96722.06
2022-09-13T15:49:33.793Z,96726.59
2022-09-13T15:52:36.629Z,96721.78
2022-09-13T15:55:40.787Z,96728.22
2022-09-13T15:58:45.064Z,96717.78
2022-09-13T16:01:49.456Z,96716.72
2022-09-13T16:04:53.126Z,96716.72
2022-09-13T16:07:58.883Z,96720.19
2022-09-13T16:11:01.741Z,96725.00
2022-09-13T16:14:06.879Z,96722.59
2022-09-13T16:17:14.084Z,96727.13
2022-09-13T16:20:17.375Z,96729.00
2022-09-13T16:23:20.252Z,96723.91
2022-09-13T16:26:23.509Z,96724.44
2022-09-13T16:29:27.837Z,96722.25
2022-09-13T16:32:30.629Z,96715.31
2022-09-13T16:35:33.729Z,96723.59
2022-09-13T16:38:36.455Z,96713.66
2022-09-13T16:41:40.055Z,96712.25
2022-09-13T16:44:44.801Z,96711.66
2022-09-13T16:47:48.015Z,96705.47
2022-09-13T16:50:51.112Z,96701.97
2022-09-13T16:53:55.107Z,96705.44
2022-09-13T16:56:58.926Z,96700.56
2022-09-13T17:00:07.312Z,96702.94
2022-09-13T17:03:10.147Z,96704.25
2022-09-13T17:06:14.729Z,96707.69
2022-09-13T17:09:17.981Z,96696.69
2022-09-13T17:12:20.926Z,96687.31
2022-09-13T17:15:25.155Z,96689.91
2022-09-13T17:18:28.427Z,96678.81
2022-09-13T17:21:33.755Z,96668.06
2022-09-13T17:24:37.234Z,96663.94
2022-09-13T17:27:40.130Z,96660.97
2022-09-13T17:30:46.215Z,96667.06
2022-09-13T17:33:50.050Z,96658.44
2022-09-13T17:36:52.873Z,96651.78
2022-09-13T17:39:56.007Z,96649.41
2022-09-13T17:42:58.929Z,96648.41
2022-09-13T17:46:06.555Z,96648.31
2022-09-13T17:49:09.659Z,96639.25
2022-09-13T17:52:12.679Z,96641.97
2022-09-13T17:55:16.152Z,96634.41
2022-09-13T17:58:19.037Z,96655.66
2022-09-13T18:01:23.330Z,96644.34
2022-09-13T18:04:26.474Z,96643.38
2022-09-13T18:07:29.420Z,96654.91
2022-09-13T18:10:57.963Z,96640.72
2022-09-13T18:13:55.371Z,96637.00
2022-09-13T18:17:00.154Z,96628.19
2022-09-13T18:20:03.959Z,96628.13
2022-09-13T18:23:08.097Z,96627.28
2022-09-13T18:26:14.201Z,96624.63
2022-09-13T18:29:18.770Z,96617.63
2022-09-13T18:32:22.934Z,96611.06
2022-09-13T18:35:26.175Z,96617.69
2022-09-13T18:38:30.151Z,96618.50
2022-09-13T18:41:35.845Z,96613.78
2022-09-13T18:44:38.756Z,96613.81
2022-09-13T18:47:42.936Z,96620.44
2022-09-13T18:50:45.751Z,96612.41
2022-09-13T18:53:49.341Z,96606.91
2022-09-13T18:56:54.610Z,96610.38
2022-09-13T18:59:59.501Z,96611.13
2022-09-13T19:03:12.215Z,96611.44
2022-09-13T19:06:18.567Z,96610.00
2022-09-13T19:09:22.867Z,96605.09
2022-09-13T19:12:25.773Z,96602.00
2022-09-13T19:15:28.651Z,96597.69
2022-09-13T19:18:33.094Z,96610.94
2022-09-13T19:21:36.296Z,96608.66
2022-09-13T19:24:39.069Z,96624.28
2022-09-13T19:27:42.153Z,96617.19
2022-09-13T19:30:49.532Z,96618.94
2022-09-13T19:33:55.343Z,96617.81
2022-09-13T19:36:58.557Z,96618.78
2022-09-13T19:40:01.541Z,96625.00
2022-09-13T19:43:05.209Z,96625.41
2022-09-13T19:46:10.174Z,96629.03
2022-09-13T19:49:16.020Z,96644.44
2022-09-13T19:52:18.995Z,96636.94
2022-09-13T19:55:22.000Z,96640.84
2022-09-13T19:58:24.788Z,96636.44
2022-09-13T20:01:29.182Z,96648.50
2022-09-13T20:04:33.550Z,96641.69
2022-09-13T20:07:36.419Z,96634.63
2022-09-13T20:10:39.801Z,96639.94
2022-09-13T20:13:43.296Z,96631.16
2022-09-13T20:16:46.741Z,96642.72
2022-09-13T20:19:50.945Z,96642.31
2022-09-13T20:22:53.990Z,96644.28
2022-09-13T20:25:56.795Z,96648.66
2022-09-13T20:29:02.615Z,96649.66
2022-09-13T20:32:05.396Z,96647.31
2022-09-13T20:35:10.971Z,96650.63
2022-09-13T20:38:13.755Z,96649.63
2022-09-13T20:41:18.532Z,96651.47
2022-09-13T20:44:21.442Z,96646.72
2022-09-13T20:47:24.362Z,96649.16
2022-09-13T20:50:29.021Z,96647.28
2022-09-13T20:53:33.205Z,96645.75
2022-09-13T20:56:36.268Z,96638.75
2022-09-13T20:59:40.085Z,96633.66
2022-09-13T21:02:43.140Z,96639.69
2022-09-13T21:05:47.432Z,96639.00
2022-09-13T21:08:50.794Z,96642.94
2022-09-13T21:11:53.567Z,96641.66
2022-09-13T21:14:56.715Z,96648.84
2022-09-13T21:17:59.865Z,96652.50
2022-09-13T21:21:05.215Z,96656.78
2022-09-13T21:24:09.854Z,96661.28
2022-09-13T21:27:12.793Z,96660.03
2022-09-13T21:30:15.847Z,96662.34
2022-09-13T21:33:18.640Z,96678.41
2022-09-13T21:36:22.857Z,96677.00
2022-09-13T21:39:25.593Z,96680.59
2022-09-13T21:42:28.709Z,96681.38
2022-09-13T21:45:31.508Z,96692.00
2022-09-13T21:48:36.179Z,96700.19
2022-09-13T21:51:42.155Z,96705.84
2022-09-13T21:54:44.958Z,96708.28
2022-09-13T21:57:47.782Z,96700.78
2022-09-13T22:00:51.047Z,96691.41
2022-09-13T22:03:54.458Z,96695.13
2022-09-13T22:06:58.618Z,96697.44
2022-09-13T22:10:01.483Z,96691.41
2022-09-13T22:13:04.305Z,96696.97
2022-09-13T22:16:09.139Z,96686.00
2022-09-13T22:19:14.418Z,96685.19
2022-09-13T22:22:18.542Z,96681.38
2022-09-13T22:25:22.115Z,96686.00
2022-09-13T22:28:24.876Z,96683.22
2022-09-13T22:31:29.256Z,96685.63
2022-09-13T22:34:34.900Z,96677.59
2022-09-13T22:37:38.983Z,96669.81
2022-09-13T22:40:41.741Z,96677.44
2022-09-13T22:43:45.005Z,96681.13
2022-09-13T22:46:48.142Z,96686.69
2022-09-13T22:49:50.906Z,96686.09
2022-09-13T22:52:55.187Z,96688.28
2022-09-13T22:56:04.022Z,96681.16
2022-09-13T22:59:08.700Z,96677.19
2022-09-13T23:02:11.539Z,96697.16
2022-09-13T23:05:14.768Z,96715.72
2022-09-13T23:08:18.966Z,96721.16
2022-09-13T23:11:23.742Z,96733.91
2022-09-13T23:14:26.481Z,96746.03
2022-09-13T23:17:29.275Z,96760.00
2022-09-13T23:20:32.302Z,96764.78
2022-09-13T23:23:37.010Z,96754.63
2022-09-13T23:26:39.964Z,96752.28
2022-09-13T23:29:42.732Z,96760.06
2022-09-13T23:32:48.346Z,96767.91
2022-09-13T23:35:51.513Z,96787.88
2022-09-13T23:38:57.798Z,96788.84
2022-09-13T23:42:01.389Z,96786.72
2022-09-13T23:45:04.311Z,96786.34
2022-09-13T23:48:07.095Z,96779.91
2022-09-13T23:51:12.084Z,96780.22
2022-09-13T23:54:16.835Z,96778.78
2022-09-13T23:57:20.283Z,96782.03
